Terminal Aerodrome Forecast
Issued by NWS

Home | Current Version | Previous Version | Text Only | Print | Product List | Glossary On
Versions: 1 2 3 4 5 6 7 8 9 10 11 12 13 14 15 16 17
000
FTUS44 KBMX 032328
TAFTOI
TAF
KTOI 032328Z 0400/0424 VRB05KT P6SM VCTS SCT050CB BKN250
      TEMPO 0400/0401 VRB10KT 3SM TSRA BKN040CB
     FM040100 VRB03KT P6SM SCT050 SCT150
     FM040800 00000KT 5SM BR SCT007 SCT040
     FM041400 VRB03KT P6SM SCT050 SCT250=

USA.gov is the U.S. government's official web portal to all federal, state and local government web resources and services.